Time;durP1;ratioP1;P1;durP2;ratioP2;P2;SDS_P1;SDS_P2;PMS_P1;PMS_P2;Temp;Humidity;BMP_temperature;BMP_pressure;BME280_temperature;BME280_humidity;BME280_pressure;Samples;Min_cycle;Max_cycle;Signal;HPM_P1;HPM_P2
2024/02/03 00:02:22;;;;;;;3.03;2.72;;;;;;;7.97;82.60;150674.91;10671112;27;20451;-74
2024/02/03 00:07:24;;;;;;;5.38;2.97;;;;;;;7.95;83.26;150671.06;10652826;27;20078;-72
2024/02/03 00:12:28;;;;;;;3.20;2.45;;;;;;;7.86;84.19;150647.88;10652012;27;20039;-74
2024/02/03 00:17:31;;;;;;;5.57;2.70;;;;;;;8.00;83.55;150683.94;10669851;27;20038;-73
2024/02/03 00:22:32;;;;;;;5.28;3.97;;;;;;;7.99;84.96;150680.09;10671184;27;20048;-73
2024/02/03 00:27:34;;;;;;;8.18;3.75;;;;;;;8.02;85.77;150689.13;10652967;27;20556;-72
2024/02/03 00:32:36;;;;;;;4.50;3.42;;;;;;;7.87;87.22;150650.44;10673334;27;20045;-73
2024/02/03 00:37:38;;;;;;;3.45;3.15;;;;;;;7.93;87.96;150664.63;10671741;27;20054;-73
2024/02/03 00:42:40;;;;;;;6.45;3.38;;;;;;;7.86;89.59;150647.88;10670910;27;20050;-72
2024/02/03 00:47:42;;;;;;;4.75;3.15;;;;;;;7.81;90.07;150635.00;10670117;27;20053;-73
2024/02/03 00:52:44;;;;;;;3.42;3.13;;;;;;;7.84;91.21;150644.00;10670501;27;20045;-73
2024/02/03 00:57:45;;;;;;;3.88;3.28;;;;;;;7.84;91.68;150642.72;10652533;27;20118;-73
2024/02/03 01:02:48;;;;;;;4.68;3.45;;;;;;;7.83;91.93;150640.13;10671165;27;20047;-73
2024/02/03 01:07:49;;;;;;;4.00;3.65;;;;;;;7.81;92.34;150636.28;10669886;27;20414;-73
2024/02/03 01:12:52;;;;;;;5.32;3.83;;;;;;;7.83;92.26;150640.13;10670067;27;20068;-73
2024/02/03 01:17:54;;;;;;;4.40;3.85;;;;;;;7.79;92.97;150629.81;10677736;27;20049;-73
2024/02/03 01:22:56;;;;;;;4.32;3.13;;;;;;;7.91;92.67;150660.75;10677246;27;20522;-74
2024/02/03 01:27:58;;;;;;;4.63;3.88;;;;;;;7.91;93.13;150660.75;10677913;27;20070;-73
2024/02/03 01:33:00;;;;;;;5.38;3.80;;;;;;;8.11;92.41;150711.03;10677749;27;20053;-73
2024/02/03 01:38:02;;;;;;;4.55;3.33;;;;;;;7.97;92.96;150676.22;10678559;27;20034;-74
2024/02/03 01:43:07;;;;;;;6.22;3.60;;;;;;;8.00;93.45;150682.66;10677447;27;20046;-73
2024/02/03 01:48:11;;;;;;;4.45;3.55;;;;;;;8.17;92.16;150725.19;10678377;27;20035;-74
2024/02/03 01:53:15;;;;;;;3.70;3.28;;;;;;;8.26;92.42;150748.38;10676319;27;20053;-74
2024/02/03 01:58:17;;;;;;;4.15;3.53;;;;;;;8.43;91.33;150790.97;10657700;27;20053;-73
2024/02/03 02:03:19;;;;;;;3.88;3.28;;;;;;;8.44;91.20;150794.81;10676265;27;20039;-73
2024/02/03 02:08:37;;;;;;;4.40;3.25;;;;;;;8.56;90.58;150824.50;10675467;27;20087;-73
2024/02/03 02:13:39;;;;;;;4.35;3.33;;;;;;;8.49;91.61;150807.72;10657497;27;20078;-74
2024/02/03 02:18:41;;;;;;;5.07;3.00;;;;;;;8.61;90.96;150836.09;10676312;27;20038;-72
2024/02/03 02:23:43;;;;;;;4.55;3.03;;;;;;;8.58;90.90;150829.63;10675015;27;20066;-72
2024/02/03 02:28:45;;;;;;;3.70;3.17;;;;;;;8.69;90.19;150858.00;10674344;27;20039;-74
2024/02/03 02:33:46;;;;;;;3.25;2.95;;;;;;;8.67;90.17;150852.84;10674381;27;20558;-72
2024/02/03 02:38:49;;;;;;;2.80;2.50;;;;;;;8.69;90.30;150856.72;10674658;27;20043;-75
2024/02/03 02:43:50;;;;;;;3.03;2.63;;;;;;;8.84;89.52;150895.38;10672874;27;20035;-73
2024/02/03 02:48:53;;;;;;;3.15;2.85;;;;;;;8.80;89.47;150886.34;10674837;27;20088;-73
2024/02/03 02:53:55;;;;;;;6.32;3.20;;;;;;;8.80;89.74;150886.34;10673588;27;20046;-73
2024/02/03 02:58:57;;;;;;;2.25;2.05;;;;;;;8.90;88.91;150910.88;10673598;27;20117;-73
2024/02/03 03:03:59;;;;;;;3.05;2.75;;;;;;;8.73;90.25;150868.34;10673011;27;20038;-72
2024/02/03 03:09:01;;;;;;;3.85;2.35;;;;;;;8.99;88.83;150934.09;10672846;27;20508;-72
2024/02/03 03:14:05;;;;;;;3.08;2.65;;;;;;;9.00;88.34;150936.66;10673647;27;20031;-74
2024/02/03 03:19:07;;;;;;;3.35;2.10;;;;;;;8.93;88.69;150917.31;10673769;27;20043;-73
2024/02/03 03:24:09;;;;;;;3.13;1.80;;;;;;;8.89;89.22;150907.00;10672025;27;20448;-73
2024/02/03 03:29:11;;;;;;;3.25;2.67;;;;;;;8.99;88.47;150934.09;10673309;27;20042;-74
2024/02/03 03:34:17;;;;;;;2.90;2.20;;;;;;;9.00;88.74;150936.66;10673746;27;20041;-73
2024/02/03 03:39:20;;;;;;;2.60;2.30;;;;;;;8.98;89.00;150931.47;10672726;27;20095;-73
2024/02/03 03:44:22;;;;;;;3.42;2.75;;;;;;;9.09;88.39;150959.88;10655006;27;20043;-74
2024/02/03 03:49:25;;;;;;;2.45;2.25;;;;;;;8.90;89.67;150909.56;10671498;27;20045;-76
2024/02/03 03:54:27;;;;;;;3.17;1.70;;;;;;;8.93;89.71;150918.59;10652236;27;20133;-76
2024/02/03 03:59:29;;;;;;;2.20;1.80;;;;;;;9.03;88.69;150943.09;10673600;27;20043;-75
2024/02/03 04:04:31;;;;;;;3.05;2.28;;;;;;;9.03;88.80;150943.09;10671676;27;20494;-75
2024/02/03 04:09:33;;;;;;;2.58;2.33;;;;;;;8.99;89.55;150932.81;10672456;27;20084;-75
2024/02/03 04:14:35;;;;;;;2.92;1.92;;;;;;;9.09;88.73;150959.88;10652647;27;20099;-76
2024/02/03 04:19:36;;;;;;;2.65;2.10;;;;;;;8.98;89.38;150931.47;10670840;27;20099;-75
2024/02/03 04:24:39;;;;;;;2.30;1.90;;;;;;;9.05;89.41;150948.28;10651347;27;20514;-76
2024/02/03 04:29:41;;;;;;;2.20;1.95;;;;;;;8.95;89.78;150922.50;10670223;27;20046;-75
2024/02/03 04:34:44;;;;;;;2.33;1.73;;;;;;;9.08;88.79;150957.31;10670510;27;20073;-74
2024/02/03 04:39:46;;;;;;;2.38;1.98;;;;;;;9.22;88.26;150990.84;10671287;27;20522;-76
2024/02/03 04:44:48;;;;;;;2.42;1.85;;;;;;;9.08;89.02;150957.31;10652252;27;20061;-75
2024/02/03 04:49:50;;;;;;;2.65;1.90;;;;;;;8.93;90.28;150917.31;10678731;27;20050;-76
2024/02/03 04:54:52;;;;;;;2.65;2.03;;;;;;;8.98;89.77;150930.19;10683773;27;20037;-75
2024/02/03 04:59:53;;;;;;;2.35;2.08;;;;;;;9.04;89.14;150945.72;10684313;27;20043;-75
2024/02/03 05:04:55;;;;;;;2.95;2.25;;;;;;;8.99;89.56;150934.09;10684384;27;20046;-75
2024/02/03 05:09:57;;;;;;;2.70;2.05;;;;;;;9.02;89.12;150940.53;10683908;27;20055;-75
2024/02/03 05:14:59;;;;;;;2.70;2.10;;;;;;;8.87;90.20;150903.13;10665351;27;20045;-76
2024/02/03 05:20:06;;;;;;;2.47;2.08;;;;;;;8.76;91.03;150874.75;10684626;27;20043;-75
2024/02/03 05:25:10;;;;;;;2.58;2.10;;;;;;;8.77;91.15;150878.66;10683678;27;20035;-75
2024/02/03 05:30:13;;;;;;;2.45;1.80;;;;;;;8.79;90.76;150882.50;10665379;27;20050;-75
2024/02/03 05:35:15;;;;;;;2.28;1.80;;;;;;;8.81;90.48;150888.97;10648207;27;20053;-76
2024/02/03 05:40:17;;;;;;;2.58;2.05;;;;;;;8.72;91.45;150865.75;10684052;27;20477;-75
2024/02/03 05:45:21;;;;;;;2.55;1.63;;;;;;;8.73;91.45;150867.06;10683320;27;20045;-76
2024/02/03 05:50:23;;;;;;;2.35;1.70;;;;;;;8.73;91.58;150868.34;10683012;27;20103;-75
2024/02/03 05:55:25;;;;;;;2.13;1.88;;;;;;;8.71;91.91;150863.16;10665526;27;20077;-76
2024/02/03 06:00:27;;;;;;;2.10;1.73;;;;;;;8.81;91.00;150887.69;10681437;27;20114;-74
2024/02/03 06:05:29;;;;;;;2.17;1.70;;;;;;;8.84;91.10;150895.38;10677121;27;20379;-75
2024/02/03 06:10:30;;;;;;;2.65;1.90;;;;;;;8.73;92.70;150868.34;10677089;27;20496;-75
2024/02/03 06:15:32;;;;;;;2.03;1.73;;;;;;;8.72;93.16;150865.75;10675753;27;20047;-76
2024/02/03 06:20:34;;;;;;;2.17;1.60;;;;;;;8.67;93.70;150851.53;10674945;27;20476;-75
2024/02/03 06:25:36;;;;;;;1.98;1.60;;;;;;;8.68;94.46;150855.44;10674315;27;20039;-74
2024/02/03 06:30:40;;;;;;;2.15;1.83;;;;;;;8.44;95.96;150793.53;10674764;27;20035;-76
2024/02/03 06:35:42;;;;;;;2.15;1.90;;;;;;;8.45;96.41;150797.38;10656226;27;20065;-75
2024/02/03 06:40:43;;;;;;;2.35;1.88;;;;;;;8.41;96.68;150785.78;10673888;27;20046;-75
2024/02/03 06:45:45;;;;;;;2.17;1.98;;;;;;;8.45;96.59;150796.09;10656351;27;20118;-75
2024/02/03 06:50:49;;;;;;;2.45;1.80;;;;;;;8.47;96.76;150802.56;10673551;27;20034;-75
2024/02/03 06:55:51;;;;;;;2.20;1.77;;;;;;;8.41;97.27;150787.13;10674211;27;20039;-75
2024/02/03 07:00:54;;;;;;;2.10;1.67;;;;;;;8.41;97.93;150787.13;10672812;27;20074;-75
2024/02/03 07:05:56;;;;;;;2.03;1.83;;;;;;;8.35;98.62;150772.88;10672695;27;20103;-76
2024/02/03 07:10:58;;;;;;;2.78;2.47;;;;;;;8.48;97.84;150803.84;10673017;27;20073;-74
2024/02/03 07:16:02;;;;;;;2.78;1.70;;;;;;;8.55;97.14;150821.94;10672772;27;20042;-75
2024/02/03 07:21:04;;;;;;;1.65;1.55;;;;;;;8.53;97.41;150818.03;10672532;27;20444;-75
2024/02/03 07:26:06;;;;;;;1.90;1.70;;;;;;;8.58;96.98;150830.91;10671869;27;20046;-76
2024/02/03 07:31:07;;;;;;;1.65;1.52;;;;;;;8.58;96.19;150830.91;10672491;27;20070;-75
2024/02/03 07:36:09;;;;;;;2.13;1.40;;;;;;;8.70;94.90;150860.59;10671857;27;20034;-75
2024/02/03 07:41:11;;;;;;;1.52;1.30;;;;;;;8.67;95.19;150852.84;10653660;27;20049;-75
2024/02/03 07:46:13;;;;;;;1.30;1.20;;;;;;;8.80;93.59;150885.06;10672630;27;20492;-75
2024/02/03 07:51:14;;;;;;;1.63;1.23;;;;;;;8.81;93.46;150887.69;10671254;27;20095;-75
2024/02/03 07:56:16;;;;;;;2.33;1.27;;;;;;;8.86;93.93;150899.28;10671292;27;20046;-76
2024/02/03 08:01:21;;;;;;;1.35;1.13;;;;;;;8.89;93.76;150908.28;10671169;27;20046;-76
2024/02/03 08:06:23;;;;;;;1.45;1.00;;;;;;;8.89;94.13;150908.28;10671280;27;20034;-76
2024/02/03 08:11:25;;;;;;;1.10;0.82;;;;;;;8.99;92.70;150932.81;10670980;27;20079;-75
2024/02/03 08:16:27;;;;;;;1.20;1.10;;;;;;;8.97;93.44;150928.91;10670849;27;20454;-75
2024/02/03 08:21:29;;;;;;;1.98;0.90;;;;;;;8.94;93.97;150921.22;10672125;27;20431;-76
2024/02/03 08:26:31;;;;;;;0.90;0.60;;;;;;;8.98;94.81;150930.19;10669729;27;20130;-77
2024/02/03 08:31:32;;;;;;;0.90;0.68;;;;;;;8.89;95.02;150908.28;10670875;27;20042;-76
2024/02/03 08:36:34;;;;;;;1.50;0.90;;;;;;;8.94;94.96;150919.88;10670818;27;20059;-75
2024/02/03 08:41:36;;;;;;;1.95;0.65;;;;;;;8.97;94.92;150927.63;10670438;27;20104;-75
2024/02/03 08:46:38;;;;;;;2.00;1.10;;;;;;;9.01;94.20;150937.94;10668797;27;20039;-75
2024/02/03 08:51:39;;;;;;;0.95;0.70;;;;;;;9.00;95.54;150936.66;10669046;27;20056;-75
2024/02/03 08:56:43;;;;;;;0.82;0.73;;;;;;;8.88;98.00;150904.44;10649955;27;20042;-75
2024/02/03 09:01:44;;;;;;;0.50;0.50;;;;;;;8.89;98.91;150908.28;10668598;27;20057;-75
2024/02/03 09:06:47;;;;;;;0.50;0.50;;;;;;;8.99;98.35;150934.09;10668470;27;20043;-75
2024/02/03 09:11:49;;;;;;;0.95;0.75;;;;;;;9.05;97.76;150949.56;10634038;27;20477;-75
2024/02/03 09:16:51;;;;;;;1.50;1.00;;;;;;;9.24;95.42;150997.25;10669746;27;20046;-76
2024/02/03 09:21:53;;;;;;;1.00;0.60;;;;;;;9.40;94.38;151036.00;10669306;27;20551;-75
2024/02/03 09:26:55;;;;;;;1.23;0.70;;;;;;;9.32;95.13;151017.91;10669253;27;20049;-74
2024/02/03 09:31:57;;;;;;;0.50;0.50;;;;;;;9.32;95.07;151017.91;10669649;27;20042;-75
2024/02/03 09:36:59;;;;;;;1.95;0.98;;;;;;;9.42;93.43;151042.41;10675369;27;20058;-75
2024/02/03 09:42:05;;;;;;;0.77;0.60;;;;;;;9.54;90.93;151072.09;10659536;27;20039;-75
2024/02/03 09:47:06;;;;;;;0.82;0.73;;;;;;;9.58;89.81;151083.72;10677285;27;20065;-75
2024/02/03 09:52:14;;;;;;;1.10;1.00;;;;;;;9.78;86.68;151134.06;10676608;27;20513;-75
2024/02/03 09:57:16;;;;;;;1.13;0.95;;;;;;;9.80;86.95;151137.91;10658985;27;20554;-75
2024/02/03 10:02:18;;;;;;;1.23;0.90;;;;;;;9.92;86.28;151167.63;10656105;27;20042;-75
2024/02/03 10:07:20;;;;;;;1.00;0.60;;;;;;;10.02;85.26;151194.69;10655293;27;20031;-75
2024/02/03 10:12:22;;;;;;;0.90;0.60;;;;;;;10.09;84.23;151211.44;10676025;27;20081;-75
2024/02/03 10:17:24;;;;;;;1.38;0.60;;;;;;;9.97;85.14;151180.50;10675154;27;20035;-76
2024/02/03 10:22:26;;;;;;;0.40;0.40;;;;;;;9.89;86.05;151161.13;10675219;27;20098;-75
2024/02/03 10:27:28;;;;;;;0.65;0.40;;;;;;;9.91;85.95;151165.00;10615290;27;20104;-76
2024/02/03 10:32:30;;;;;;;0.60;0.60;;;;;;;9.96;86.53;151179.22;10664291;27;20046;-76
2024/02/03 10:37:32;;;;;;;0.43;0.43;;;;;;;9.86;88.67;151153.38;10675741;27;20042;-75
2024/02/03 10:42:39;;;;;;;0.40;0.40;;;;;;;9.78;88.30;151132.72;10674782;27;20114;-76
2024/02/03 10:47:43;;;;;;;0.45;0.45;;;;;;;9.76;88.56;151128.88;10674508;27;20066;-76
2024/02/03 10:52:49;;;;;;;2.88;0.90;;;;;;;9.92;88.38;151167.63;10675703;27;20043;-75
2024/02/03 10:57:52;;;;;;;0.50;0.50;;;;;;;10.05;86.78;151202.44;10656328;27;20455;-76
2024/02/03 11:02:58;;;;;;;0.68;0.40;;;;;;;9.99;86.87;151185.66;10636953;27;20075;-75
2024/02/03 11:08:09;;;;;;;0.90;0.50;;;;;;;10.16;84.97;151229.53;10673107;27;20049;-75
2024/02/03 11:13:21;;;;;;;2.08;0.80;;;;;;;10.11;85.30;151216.63;10672951;27;20360;-76
2024/02/03 11:18:24;;;;;;;0.60;0.30;;;;;;;10.17;85.68;151230.81;10672089;27;20043;-74
2024/02/03 11:23:26;;;;;;;0.98;0.32;;;;;;;10.24;85.87;151248.91;10654214;27;20113;-76
2024/02/03 11:28:35;;;;;;;0.65;0.30;;;;;;;10.48;84.03;151310.91;10654328;27;20475;-77
2024/02/03 11:33:41;;;;;;;0.32;0.30;;;;;;;10.60;82.87;151341.91;10671583;27;20050;-76
2024/02/03 11:38:46;;;;;;;0.20;0.20;;;;;;;10.57;82.36;151334.13;10671936;27;20462;-75
2024/02/03 11:43:49;;;;;;;0.50;0.30;;;;;;;10.46;82.88;151305.75;10654425;27;20072;-76
2024/02/03 11:48:51;;;;;;;0.40;0.35;;;;;;;10.43;82.89;151298.00;10673223;27;20482;-77
2024/02/03 11:54:03;;;;;;;0.60;0.40;;;;;;;10.51;83.61;151317.38;10671785;27;20034;-76
2024/02/03 11:59:11;;;;;;;0.40;0.30;;;;;;;10.18;86.49;151233.41;10672220;27;20508;-76
2024/02/03 12:04:13;;;;;;;0.52;0.40;;;;;;;10.17;88.23;151230.81;10653985;27;20070;-75
2024/02/03 12:09:18;;;;;;;0.38;0.38;;;;;;;10.14;89.56;151224.41;10671077;27;20062;-74
2024/02/03 12:14:21;;;;;;;0.63;0.38;;;;;;;9.91;92.31;151166.28;10669797;27;20046;-75
2024/02/03 12:19:24;;;;;;;0.20;0.20;;;;;;;9.96;92.38;151177.88;10669685;27;20046;-75
2024/02/03 12:24:26;;;;;;;0.73;0.20;;;;;;;10.13;89.96;151221.78;10650925;27;20045;-76
2024/02/03 12:29:28;;;;;;;0.45;0.20;;;;;;;10.27;88.83;151258.00;10670117;27;20391;-76
2024/02/03 12:34:30;;;;;;;0.22;0.20;;;;;;;10.50;87.23;151316.09;10669657;27;20493;-76
2024/02/03 12:39:32;;;;;;;0.43;0.20;;;;;;;10.64;85.60;151349.66;10651156;27;20043;-76
2024/02/03 12:44:34;;;;;;;0.30;0.20;;;;;;;10.85;83.63;151403.91;10668850;27;20045;-76
2024/02/03 12:49:35;;;;;;;0.20;0.20;;;;;;;10.90;82.64;151416.81;10669124;27;20095;-76
2024/02/03 12:54:37;;;;;;;0.20;0.20;;;;;;;10.81;82.17;151393.56;10670193;27;20055;-75
2024/02/03 12:59:39;;;;;;;0.15;0.15;;;;;;;10.79;82.29;151389.66;10670253;27;20058;-75
2024/02/03 13:04:41;;;;;;;0.15;0.15;;;;;;;10.59;83.22;151339.31;10650597;27;20074;-76
2024/02/03 13:09:43;;;;;;;0.35;0.15;;;;;;;10.51;84.09;151318.66;10672480;27;20042;-75
2024/02/03 13:14:45;;;;;;;0.30;0.20;;;;;;;10.63;83.62;151347.09;10659862;27;20065;-76
2024/02/03 13:19:47;;;;;;;0.20;0.20;;;;;;;10.54;83.97;151326.44;10678927;27;20561;-76
2024/02/03 13:24:49;;;;;;;0.15;0.15;;;;;;;10.49;84.75;151312.19;10678932;27;20035;-76
2024/02/03 13:29:50;;;;;;;0.45;0.20;;;;;;;10.58;84.20;151336.75;10678519;27;20042;-75
2024/02/03 13:34:53;;;;;;;0.20;0.20;;;;;;;10.61;84.38;151343.19;10660385;27;20043;-77
2024/02/03 13:39:55;;;;;;;0.20;0.20;;;;;;;10.68;83.80;151360.00;10679402;27;20402;-76
2024/02/03 13:44:57;;;;;;;0.17;0.17;;;;;;;10.61;84.23;151344.47;10679071;27;20242;-75
2024/02/03 13:49:59;;;;;;;0.40;0.40;;;;;;;10.54;84.72;151326.44;10677204;27;20031;-76
2024/02/03 13:55:02;;;;;;;0.28;0.10;;;;;;;10.51;84.86;151317.38;10677186;27;20061;-75
2024/02/03 14:00:06;;;;;;;0.40;0.28;;;;;;;10.48;85.69;151309.63;10677366;27;20087;-75
2024/02/03 14:05:08;;;;;;;0.82;0.30;;;;;;;10.32;87.39;151269.63;10677356;27;20431;-75
2024/02/03 14:10:10;;;;;;;0.40;0.38;;;;;;;10.35;87.75;151277.34;10659183;27;20039;-75
2024/02/03 14:15:12;;;;;;;0.40;0.38;;;;;;;10.25;88.37;151252.81;10677245;27;20035;-75
2024/02/03 14:20:14;;;;;;;0.50;0.30;;;;;;;10.07;90.06;151206.31;10657432;27;20099;-76
2024/02/03 14:25:17;;;;;;;0.63;0.40;;;;;;;10.37;88.42;151281.25;10677505;27;20131;-75
2024/02/03 14:30:19;;;;;;;0.20;0.20;;;;;;;10.34;89.05;151274.75;10675251;27;20035;-76
2024/02/03 14:35:22;;;;;;;0.40;0.30;;;;;;;10.32;89.32;151269.63;10659833;27;20046;-76
2024/02/03 14:40:25;;;;;;;0.20;0.20;;;;;;;10.39;88.70;151286.38;10674834;27;20042;-77
2024/02/03 14:45:26;;;;;;;0.30;0.30;;;;;;;10.36;89.15;151279.94;10657529;27;20045;-76
2024/02/03 14:50:30;;;;;;;0.35;0.28;;;;;;;10.24;89.51;151248.91;10673804;27;20054;-76
2024/02/03 14:55:32;;;;;;;0.70;0.70;;;;;;;10.24;92.46;151248.91;10673304;27;20490;-76
2024/02/03 15:00:34;;;;;;;0.60;0.22;;;;;;;9.94;96.25;151174.03;10673565;27;20083;-75
2024/02/03 15:05:36;;;;;;;0.60;0.50;;;;;;;9.73;98.90;151121.13;10637952;27;20554;-76
2024/02/03 15:10:38;;;;;;;1.20;0.52;;;;;;;9.46;100.00;151052.75;10672954;27;20071;-77
2024/02/03 15:15:40;;;;;;;1.60;1.08;;;;;;;9.25;100.00;150998.56;10654717;27;20074;-75
2024/02/03 15:20:42;;;;;;;0.68;0.50;;;;;;;9.14;100.00;150970.19;10672705;27;20049;-76
2024/02/03 15:25:43;;;;;;;1.30;0.93;;;;;;;9.08;100.00;150956.03;10673586;27;20042;-76
2024/02/03 15:30:46;;;;;;;0.95;0.85;;;;;;;9.08;100.00;150956.03;10673691;27;20043;-76
2024/02/03 15:35:48;;;;;;;0.47;0.47;;;;;;;8.97;100.00;150928.91;10656014;27;20046;-76
2024/02/03 15:40:49;;;;;;;1.13;0.57;;;;;;;8.91;100.00;150913.47;10672224;27;20043;-76
2024/02/03 15:45:51;;;;;;;0.50;0.50;;;;;;;8.86;100.00;150899.28;10672622;27;20043;-76
2024/02/03 15:50:53;;;;;;;0.45;0.40;;;;;;;8.74;100.00;150869.63;10652553;27;20043;-75
2024/02/03 15:55:55;;;;;;;0.95;0.40;;;;;;;8.53;100.00;150818.03;10670391;27;20035;-75
2024/02/03 16:00:57;;;;;;;0.40;0.40;;;;;;;8.48;100.00;150803.84;10670439;27;20050;-75
2024/02/03 16:05:59;;;;;;;0.40;0.30;;;;;;;8.54;100.00;150820.66;10671025;27;20038;-74
2024/02/03 16:11:01;;;;;;;0.60;0.43;;;;;;;8.54;100.00;150819.31;10653284;27;20044;-75
2024/02/03 16:16:03;;;;;;;0.38;0.30;;;;;;;8.61;100.00;150837.38;10670657;27;20038;-75
2024/02/03 16:21:05;;;;;;;0.90;0.32;;;;;;;8.66;100.00;150850.25;10670680;27;20045;-75
2024/02/03 16:26:07;;;;;;;0.43;0.43;;;;;;;8.67;100.00;150851.53;10670923;27;20116;-76
2024/02/03 16:31:11;;;;;;;0.50;0.50;;;;;;;8.69;100.00;150858.00;10669580;27;20067;-76
2024/02/03 16:36:13;;;;;;;0.60;0.35;;;;;;;8.71;100.00;150861.88;10651873;27;20115;-75
2024/02/03 16:41:14;;;;;;;0.50;0.50;;;;;;;8.81;100.00;150887.69;10669132;27;20031;-75
2024/02/03 16:46:16;;;;;;;0.40;0.40;;;;;;;8.88;100.00;150904.44;10666775;27;20038;-76
2024/02/03 16:51:18;;;;;;;0.30;0.30;;;;;;;8.85;100.00;150897.97;10670496;27;20100;-75
2024/02/03 16:56:20;;;;;;;0.85;0.50;;;;;;;8.80;100.00;150885.06;10671271;27;20038;-76
2024/02/03 17:01:22;;;;;;;0.40;0.40;;;;;;;8.77;100.00;150878.66;10670413;27;20486;-75
2024/02/03 17:06:34;;;;;;;0.70;0.60;;;;;;;8.69;100.00;150858.00;10670593;27;20065;-75
2024/02/03 17:11:36;;;;;;;0.50;0.50;;;;;;;8.69;100.00;150856.72;10670679;27;20039;-74
2024/02/03 17:16:38;;;;;;;0.57;0.57;;;;;;;8.57;100.00;150828.34;10669616;27;20035;-74
2024/02/03 17:21:39;;;;;;;1.05;0.52;;;;;;;8.43;100.00;150790.97;10651258;27;20517;-74
2024/02/03 17:26:41;;;;;;;0.90;0.50;;;;;;;8.51;100.00;150812.88;10668712;27;20038;-75
2024/02/03 17:31:43;;;;;;;0.60;0.60;;;;;;;8.48;100.00;150805.13;10650842;27;20050;-74
2024/02/03 17:36:45;;;;;;;0.60;0.55;;;;;;;8.52;100.00;150815.47;10669641;27;20123;-73
2024/02/03 17:41:46;;;;;;;1.77;1.05;;;;;;;8.64;100.00;150843.84;10670170;27;20043;-74
2024/02/03 17:46:48;;;;;;;1.85;0.88;;;;;;;8.65;100.00;150846.41;10651184;27;20047;-74
2024/02/03 17:51:51;;;;;;;0.68;0.68;;;;;;;8.74;100.00;150870.91;10633754;27;20074;-74
2024/02/03 17:56:53;;;;;;;0.60;0.60;;;;;;;8.79;100.00;150883.78;10672859;27;20073;-74
2024/02/03 18:01:54;;;;;;;0.85;0.60;;;;;;;8.81;100.00;150888.97;10658901;27;20058;-75
2024/02/03 18:06:56;;;;;;;0.80;0.65;;;;;;;8.74;100.00;150869.63;10676177;27;20070;-75
2024/02/03 18:11:58;;;;;;;0.57;0.50;;;;;;;8.73;100.00;150868.34;10675688;27;20125;-73
2024/02/03 18:17:02;;;;;;;1.88;1.10;;;;;;;8.72;100.00;150865.75;10676139;27;20070;-74
2024/02/03 18:22:04;;;;;;;0.80;0.80;;;;;;;8.74;100.00;150869.63;10676389;27;20043;-74
2024/02/03 18:27:06;;;;;;;0.75;0.60;;;;;;;8.66;100.00;150848.97;10675556;27;20066;-74
2024/02/03 18:32:08;;;;;;;2.03;0.85;;;;;;;8.61;100.00;150836.09;10677753;27;20383;-74
2024/02/03 18:37:09;;;;;;;1.30;1.13;;;;;;;8.61;100.00;150836.09;10676574;27;20035;-74
2024/02/03 18:42:11;;;;;;;0.98;0.88;;;;;;;8.64;100.00;150843.84;10676291;27;20035;-74
2024/02/03 18:47:13;;;;;;;2.03;1.45;;;;;;;8.59;100.00;150832.25;10675399;27;20125;-75
2024/02/03 18:52:15;;;;;;;0.50;0.50;;;;;;;8.58;100.00;150829.63;10676814;27;20070;-75
2024/02/03 18:57:17;;;;;;;0.57;0.57;;;;;;;8.60;100.00;150834.81;10613982;27;20072;-74
2024/02/03 19:02:18;;;;;;;0.50;0.50;;;;;;;8.56;100.00;150825.78;10647933;27;20149;-75
2024/02/03 19:07:20;;;;;;;1.25;0.80;;;;;;;8.62;100.00;150839.94;10674753;27;20043;-74
2024/02/03 19:12:22;;;;;;;0.77;0.77;;;;;;;8.55;100.00;150823.22;10675846;27;20126;-74
2024/02/03 19:17:24;;;;;;;0.95;0.85;;;;;;;8.60;100.00;150834.81;10675935;27;20387;-75
2024/02/03 19:22:26;;;;;;;0.90;0.80;;;;;;;8.59;100.00;150832.25;10675120;27;20552;-75
2024/02/03 19:27:30;;;;;;;0.80;0.70;;;;;;;8.71;100.00;150863.16;10674759;27;20043;-75
2024/02/03 19:32:32;;;;;;;0.60;0.45;;;;;;;8.71;100.00;150863.16;10675093;27;20038;-75
2024/02/03 19:37:34;;;;;;;0.80;0.80;;;;;;;8.75;100.00;150872.19;10674895;27;20486;-75
2024/02/03 19:42:37;;;;;;;2.28;1.65;;;;;;;8.78;100.00;150879.94;10673647;27;20039;-74
2024/02/03 19:47:39;;;;;;;0.50;0.50;;;;;;;8.79;100.00;150883.78;10653671;27;20047;-75
2024/02/03 19:52:41;;;;;;;0.68;0.68;;;;;;;8.83;100.00;150894.09;10671721;27;20431;-75
2024/02/03 19:57:43;;;;;;;0.70;0.70;;;;;;;8.87;100.00;150901.84;10672525;27;20119;-75
2024/02/03 20:02:49;;;;;;;0.80;0.80;;;;;;;8.84;100.00;150895.38;10674418;27;20105;-76
2024/02/03 20:07:51;;;;;;;0.70;0.70;;;;;;;8.96;100.00;150926.34;10654438;27;20043;-75
2024/02/03 20:12:53;;;;;;;2.85;0.90;;;;;;;8.92;100.00;150914.75;10672954;27;20070;-74
2024/02/03 20:17:55;;;;;;;1.55;0.80;;;;;;;8.88;100.00;150904.44;10672543;27;20519;-74
2024/02/03 20:22:57;;;;;;;1.10;0.98;;;;;;;8.97;100.00;150928.91;10672710;27;20553;-74
2024/02/03 20:27:59;;;;;;;1.25;1.15;;;;;;;8.82;100.00;150891.53;10653021;27;20050;-75
2024/02/03 20:33:02;;;;;;;0.60;0.60;;;;;;;8.87;100.00;150901.84;10672744;27;20114;-75
2024/02/03 20:38:04;;;;;;;1.42;0.90;;;;;;;8.93;100.00;150917.31;10671410;27;20118;-75
2024/02/03 20:43:06;;;;;;;1.00;0.60;;;;;;;8.70;100.00;150860.59;10670422;27;20042;-76
2024/02/03 20:48:08;;;;;;;0.88;0.80;;;;;;;8.62;100.00;150839.94;10670044;27;20035;-76
2024/02/03 20:53:10;;;;;;;1.45;0.95;;;;;;;8.62;100.00;150838.66;10652917;27;20070;-74
2024/02/03 20:58:12;;;;;;;0.77;0.70;;;;;;;8.58;100.00;150829.63;10671751;27;20035;-75
2024/02/03 21:03:14;;;;;;;1.20;0.82;;;;;;;8.68;100.00;150855.44;10652432;27;20043;-75
2024/02/03 21:08:16;;;;;;;1.20;0.80;;;;;;;8.65;100.00;150846.41;10671940;27;20039;-74
2024/02/03 21:13:18;;;;;;;1.23;0.70;;;;;;;8.63;100.00;150841.22;10670448;27;20107;-76
2024/02/03 21:18:23;;;;;;;1.17;0.80;;;;;;;8.58;100.00;150829.63;10671520;27;20072;-75
2024/02/03 21:23:26;;;;;;;0.63;0.63;;;;;;;8.61;100.00;150837.38;10669831;27;20042;-74
2024/02/03 21:28:29;;;;;;;0.70;0.60;;;;;;;8.57;100.00;150827.06;10670491;27;20039;-76
2024/02/03 21:33:30;;;;;;;1.85;0.65;;;;;;;8.58;100.00;150829.63;10677129;27;20034;-75
2024/02/03 21:38:33;;;;;;;6.30;0.80;;;;;;;8.67;100.00;150851.53;10659797;27;20039;-73
2024/02/03 21:43:35;;;;;;;0.70;0.70;;;;;;;8.63;100.00;150842.50;10678155;27;20056;-75
2024/02/03 21:48:37;;;;;;;0.70;0.68;;;;;;;8.69;100.00;150858.00;10676954;27;20046;-75
2024/02/03 21:53:39;;;;;;;1.63;0.95;;;;;;;8.73;100.00;150867.06;10678474;27;20046;-75
2024/02/03 21:58:42;;;;;;;0.80;0.57;;;;;;;8.67;100.00;150851.53;10676559;27;20090;-75
2024/02/03 22:03:43;;;;;;;0.95;0.77;;;;;;;8.57;100.00;150827.06;10676741;27;20043;-76
2024/02/03 22:08:45;;;;;;;0.90;0.80;;;;;;;8.50;100.00;150810.31;10677337;27;20141;-74
2024/02/03 22:13:47;;;;;;;0.50;0.50;;;;;;;8.49;100.00;150807.72;10676106;27;20069;-74
2024/02/03 22:18:49;;;;;;;0.88;0.85;;;;;;;8.62;100.00;150838.66;10676762;27;20042;-74
2024/02/03 22:23:51;;;;;;;0.50;0.50;;;;;;;8.66;100.00;150848.97;10676056;27;20043;-74
2024/02/03 22:28:53;;;;;;;0.52;0.52;;;;;;;8.74;100.00;150869.63;10676293;27;20059;-75
2024/02/03 22:33:55;;;;;;;0.50;0.50;;;;;;;8.74;100.00;150870.91;10656654;27;20046;-75
2024/02/03 22:38:56;;;;;;;0.70;0.70;;;;;;;8.77;100.00;150877.38;10674235;27;20039;-75
2024/02/03 22:43:58;;;;;;;0.70;0.70;;;;;;;8.66;100.00;150848.97;10672581;27;20039;-76
2024/02/03 22:49:00;;;;;;;0.60;0.50;;;;;;;8.71;100.00;150863.16;10674819;27;20045;-76
2024/02/03 22:54:02;;;;;;;0.40;0.40;;;;;;;8.77;100.00;150877.38;10674353;27;20387;-76
2024/02/03 22:59:04;;;;;;;0.85;0.60;;;;;;;8.68;100.00;150855.44;10675729;27;20099;-77
2024/02/03 23:04:06;;;;;;;0.40;0.40;;;;;;;8.55;100.00;150823.22;10674962;27;20053;-76
2024/02/03 23:09:09;;;;;;;0.60;0.40;;;;;;;8.64;100.00;150845.13;10675409;27;20126;-76
2024/02/03 23:14:11;;;;;;;0.35;0.30;;;;;;;8.59;100.00;150832.25;10675075;27;20064;-76
2024/02/03 23:19:13;;;;;;;0.73;0.60;;;;;;;8.62;100.00;150838.66;10673001;27;20035;-76